sensor_id;sensor_type;location;lat;lon;timestamp;P1;durP1;ratioP1;P2;durP2;ratioP2
71606;SDS011;60641;53.556;9.914;2024-03-06T00:01:49;15.40;;;6.20;;
71606;SDS011;60641;53.556;9.914;2024-03-06T00:04:15;15.20;;;6.10;;
71606;SDS011;60641;53.556;9.914;2024-03-06T00:06:42;18.60;;;8.40;;
71606;SDS011;60641;53.556;9.914;2024-03-06T00:09:08;14.80;;;6.40;;
71606;SDS011;60641;53.556;9.914;2024-03-06T00:11:35;14.70;;;6.50;;
71606;SDS011;60641;53.556;9.914;2024-03-06T00:14:04;17.90;;;7.20;;
71606;SDS011;60641;53.556;9.914;2024-03-06T00:16:31;19.00;;;7.90;;
71606;SDS011;60641;53.556;9.914;2024-03-06T00:18:58;17.00;;;7.60;;
71606;SDS011;60641;53.556;9.914;2024-03-06T00:21:24;17.10;;;6.50;;
71606;SDS011;60641;53.556;9.914;2024-03-06T00:23:51;14.40;;;6.80;;
71606;SDS011;60641;53.556;9.914;2024-03-06T00:26:17;18.10;;;7.80;;
71606;SDS011;60641;53.556;9.914;2024-03-06T00:28:44;15.80;;;6.80;;
71606;SDS011;60641;53.556;9.914;2024-03-06T00:31:10;15.30;;;6.40;;
71606;SDS011;60641;53.556;9.914;2024-03-06T00:33:37;14.30;;;6.60;;
71606;SDS011;60641;53.556;9.914;2024-03-06T00:36:04;17.40;;;7.50;;
71606;SDS011;60641;53.556;9.914;2024-03-06T00:38:31;16.40;;;6.40;;
71606;SDS011;60641;53.556;9.914;2024-03-06T00:40:57;17.50;;;7.20;;
71606;SDS011;60641;53.556;9.914;2024-03-06T00:43:24;15.90;;;6.80;;
71606;SDS011;60641;53.556;9.914;2024-03-06T00:45:50;19.00;;;6.10;;
71606;SDS011;60641;53.556;9.914;2024-03-06T00:48:17;16.70;;;7.20;;
71606;SDS011;60641;53.556;9.914;2024-03-06T00:50:46;13.80;;;5.90;;
71606;SDS011;60641;53.556;9.914;2024-03-06T00:53:12;14.80;;;6.10;;
71606;SDS011;60641;53.556;9.914;2024-03-06T00:55:39;13.60;;;6.40;;
71606;SDS011;60641;53.556;9.914;2024-03-06T00:58:05;13.30;;;6.30;;
71606;SDS011;60641;53.556;9.914;2024-03-06T01:00:34;12.80;;;5.90;;
71606;SDS011;60641;53.556;9.914;2024-03-06T01:03:01;12.00;;;4.90;;
71606;SDS011;60641;53.556;9.914;2024-03-06T01:05:28;14.70;;;5.70;;
71606;SDS011;60641;53.556;9.914;2024-03-06T01:07:54;14.40;;;6.20;;
71606;SDS011;60641;53.556;9.914;2024-03-06T01:10:23;11.70;;;5.20;;
71606;SDS011;60641;53.556;9.914;2024-03-06T01:12:50;12.10;;;5.60;;
71606;SDS011;60641;53.556;9.914;2024-03-06T01:15:16;13.40;;;5.10;;
71606;SDS011;60641;53.556;9.914;2024-03-06T01:17:43;11.10;;;4.70;;
71606;SDS011;60641;53.556;9.914;2024-03-06T01:20:10;12.40;;;5.70;;
71606;SDS011;60641;53.556;9.914;2024-03-06T01:22:36;12.90;;;5.40;;
71606;SDS011;60641;53.556;9.914;2024-03-06T01:25:03;12.40;;;5.20;;
71606;SDS011;60641;53.556;9.914;2024-03-06T01:27:31;12.90;;;5.30;;
71606;SDS011;60641;53.556;9.914;2024-03-06T01:29:57;12.50;;;5.10;;
71606;SDS011;60641;53.556;9.914;2024-03-06T01:32:23;12.10;;;5.00;;
71606;SDS011;60641;53.556;9.914;2024-03-06T01:34:50;12.50;;;4.90;;
71606;SDS011;60641;53.556;9.914;2024-03-06T01:37:16;9.60;;;4.20;;
71606;SDS011;60641;53.556;9.914;2024-03-06T01:39:43;15.70;;;4.80;;
71606;SDS011;60641;53.556;9.914;2024-03-06T01:42:09;11.80;;;5.10;;
71606;SDS011;60641;53.556;9.914;2024-03-06T01:44:36;11.50;;;5.20;;
71606;SDS011;60641;53.556;9.914;2024-03-06T01:47:02;13.20;;;4.80;;
71606;SDS011;60641;53.556;9.914;2024-03-06T01:49:29;10.80;;;4.60;;
71606;SDS011;60641;53.556;9.914;2024-03-06T01:51:56;12.10;;;5.30;;
71606;SDS011;60641;53.556;9.914;2024-03-06T01:54:23;11.70;;;5.10;;
71606;SDS011;60641;53.556;9.914;2024-03-06T01:56:50;9.30;;;3.70;;
71606;SDS011;60641;53.556;9.914;2024-03-06T01:59:17;9.80;;;4.50;;
71606;SDS011;60641;53.556;9.914;2024-03-06T02:01:45;9.90;;;4.20;;
71606;SDS011;60641;53.556;9.914;2024-03-06T02:04:12;12.30;;;4.60;;
71606;SDS011;60641;53.556;9.914;2024-03-06T02:06:39;10.60;;;5.00;;
71606;SDS011;60641;53.556;9.914;2024-03-06T02:09:05;9.00;;;3.70;;
71606;SDS011;60641;53.556;9.914;2024-03-06T02:11:38;9.80;;;4.30;;
71606;SDS011;60641;53.556;9.914;2024-03-06T02:14:05;9.60;;;4.50;;
71606;SDS011;60641;53.556;9.914;2024-03-06T02:16:36;11.30;;;5.00;;
71606;SDS011;60641;53.556;9.914;2024-03-06T02:19:05;12.70;;;5.40;;
71606;SDS011;60641;53.556;9.914;2024-03-06T02:21:31;11.50;;;5.20;;
71606;SDS011;60641;53.556;9.914;2024-03-06T02:23:58;12.80;;;4.70;;
71606;SDS011;60641;53.556;9.914;2024-03-06T02:26:24;11.00;;;4.90;;
71606;SDS011;60641;53.556;9.914;2024-03-06T02:28:51;14.00;;;4.50;;
71606;SDS011;60641;53.556;9.914;2024-03-06T02:31:19;11.00;;;5.00;;
71606;SDS011;60641;53.556;9.914;2024-03-06T02:33:49;11.40;;;4.50;;
71606;SDS011;60641;53.556;9.914;2024-03-06T02:36:18;10.40;;;4.70;;
71606;SDS011;60641;53.556;9.914;2024-03-06T02:38:45;10.80;;;4.40;;
71606;SDS011;60641;53.556;9.914;2024-03-06T02:41:12;10.60;;;5.20;;
71606;SDS011;60641;53.556;9.914;2024-03-06T02:43:41;10.80;;;5.20;;
71606;SDS011;60641;53.556;9.914;2024-03-06T02:46:11;14.00;;;5.20;;
71606;SDS011;60641;53.556;9.914;2024-03-06T02:48:37;12.50;;;5.20;;
71606;SDS011;60641;53.556;9.914;2024-03-06T02:51:04;11.80;;;5.00;;
71606;SDS011;60641;53.556;9.914;2024-03-06T02:53:30;11.30;;;5.00;;
71606;SDS011;60641;53.556;9.914;2024-03-06T02:55:57;12.80;;;5.10;;
71606;SDS011;60641;53.556;9.914;2024-03-06T02:58:24;12.00;;;4.60;;
71606;SDS011;60641;53.556;9.914;2024-03-06T03:00:50;11.80;;;5.50;;
71606;SDS011;60641;53.556;9.914;2024-03-06T03:03:16;12.20;;;5.80;;
71606;SDS011;60641;53.556;9.914;2024-03-06T03:05:43;11.60;;;4.90;;
71606;SDS011;60641;53.556;9.914;2024-03-06T03:08:09;11.90;;;4.50;;
71606;SDS011;60641;53.556;9.914;2024-03-06T03:10:36;9.50;;;4.10;;
71606;SDS011;60641;53.556;9.914;2024-03-06T03:13:02;12.00;;;4.40;;
71606;SDS011;60641;53.556;9.914;2024-03-06T03:15:31;11.70;;;5.20;;
71606;SDS011;60641;53.556;9.914;2024-03-06T03:17:58;11.30;;;5.10;;
71606;SDS011;60641;53.556;9.914;2024-03-06T03:20:25;11.40;;;4.50;;
71606;SDS011;60641;53.556;9.914;2024-03-06T03:22:52;9.60;;;3.90;;
71606;SDS011;60641;53.556;9.914;2024-03-06T03:25:18;9.50;;;4.00;;
71606;SDS011;60641;53.556;9.914;2024-03-06T03:27:46;9.20;;;3.70;;
71606;SDS011;60641;53.556;9.914;2024-03-06T03:30:13;11.90;;;4.60;;
71606;SDS011;60641;53.556;9.914;2024-03-06T03:32:39;11.00;;;4.30;;
71606;SDS011;60641;53.556;9.914;2024-03-06T03:35:06;11.10;;;4.30;;
71606;SDS011;60641;53.556;9.914;2024-03-06T03:37:33;10.70;;;4.70;;
71606;SDS011;60641;53.556;9.914;2024-03-06T03:40:00;14.50;;;4.60;;
71606;SDS011;60641;53.556;9.914;2024-03-06T03:42:27;12.10;;;4.30;;
71606;SDS011;60641;53.556;9.914;2024-03-06T03:44:53;10.10;;;3.30;;
71606;SDS011;60641;53.556;9.914;2024-03-06T03:47:21;11.60;;;3.80;;
71606;SDS011;60641;53.556;9.914;2024-03-06T03:49:47;11.90;;;3.80;;
71606;SDS011;60641;53.556;9.914;2024-03-06T03:52:13;10.00;;;4.40;;
71606;SDS011;60641;53.556;9.914;2024-03-06T03:54:40;9.30;;;3.30;;
71606;SDS011;60641;53.556;9.914;2024-03-06T03:57:07;10.90;;;4.50;;
71606;SDS011;60641;53.556;9.914;2024-03-06T03:59:34;10.80;;;3.80;;
71606;SDS011;60641;53.556;9.914;2024-03-06T04:02:03;10.80;;;4.60;;
71606;SDS011;60641;53.556;9.914;2024-03-06T04:04:30;9.40;;;3.90;;
71606;SDS011;60641;53.556;9.914;2024-03-06T04:06:57;11.50;;;4.50;;
71606;SDS011;60641;53.556;9.914;2024-03-06T04:09:25;11.10;;;4.00;;
71606;SDS011;60641;53.556;9.914;2024-03-06T04:11:52;15.00;;;4.60;;
71606;SDS011;60641;53.556;9.914;2024-03-06T04:14:18;10.50;;;4.00;;
71606;SDS011;60641;53.556;9.914;2024-03-06T04:16:48;13.60;;;4.70;;
71606;SDS011;60641;53.556;9.914;2024-03-06T04:19:14;9.70;;;4.30;;
71606;SDS011;60641;53.556;9.914;2024-03-06T04:21:44;10.30;;;4.10;;
71606;SDS011;60641;53.556;9.914;2024-03-06T04:24:10;12.60;;;4.50;;
71606;SDS011;60641;53.556;9.914;2024-03-06T04:26:36;12.80;;;3.90;;
71606;SDS011;60641;53.556;9.914;2024-03-06T04:29:03;12.90;;;4.70;;
71606;SDS011;60641;53.556;9.914;2024-03-06T04:31:30;10.70;;;5.00;;
71606;SDS011;60641;53.556;9.914;2024-03-06T04:33:57;11.00;;;4.80;;
71606;SDS011;60641;53.556;9.914;2024-03-06T04:36:23;9.30;;;4.40;;
71606;SDS011;60641;53.556;9.914;2024-03-06T04:38:49;9.80;;;4.40;;
71606;SDS011;60641;53.556;9.914;2024-03-06T04:41:20;12.50;;;4.80;;
71606;SDS011;60641;53.556;9.914;2024-03-06T04:43:47;8.30;;;3.70;;
71606;SDS011;60641;53.556;9.914;2024-03-06T04:46:14;9.60;;;4.30;;
71606;SDS011;60641;53.556;9.914;2024-03-06T04:48:40;9.80;;;4.80;;
71606;SDS011;60641;53.556;9.914;2024-03-06T04:51:07;12.10;;;5.20;;
71606;SDS011;60641;53.556;9.914;2024-03-06T04:53:36;9.70;;;3.60;;
71606;SDS011;60641;53.556;9.914;2024-03-06T04:56:02;12.50;;;4.20;;
71606;SDS011;60641;53.556;9.914;2024-03-06T04:58:29;11.50;;;4.10;;
71606;SDS011;60641;53.556;9.914;2024-03-06T05:00:56;10.50;;;4.00;;
71606;SDS011;60641;53.556;9.914;2024-03-06T05:03:22;11.30;;;3.40;;
71606;SDS011;60641;53.556;9.914;2024-03-06T05:05:49;9.90;;;4.20;;
71606;SDS011;60641;53.556;9.914;2024-03-06T05:08:16;9.60;;;4.70;;
71606;SDS011;60641;53.556;9.914;2024-03-06T05:10:42;9.80;;;3.90;;
71606;SDS011;60641;53.556;9.914;2024-03-06T05:13:08;9.70;;;4.30;;
71606;SDS011;60641;53.556;9.914;2024-03-06T05:15:35;11.10;;;4.20;;
71606;SDS011;60641;53.556;9.914;2024-03-06T05:18:01;10.30;;;4.20;;
71606;SDS011;60641;53.556;9.914;2024-03-06T05:20:28;9.30;;;3.40;;
71606;SDS011;60641;53.556;9.914;2024-03-06T05:22:57;9.20;;;4.00;;
71606;SDS011;60641;53.556;9.914;2024-03-06T05:25:23;12.00;;;4.60;;
71606;SDS011;60641;53.556;9.914;2024-03-06T05:27:50;10.10;;;4.10;;
71606;SDS011;60641;53.556;9.914;2024-03-06T05:30:17;10.90;;;3.70;;
71606;SDS011;60641;53.556;9.914;2024-03-06T05:32:43;9.80;;;4.00;;
71606;SDS011;60641;53.556;9.914;2024-03-06T05:35:10;10.00;;;4.20;;
71606;SDS011;60641;53.556;9.914;2024-03-06T05:37:37;8.60;;;3.10;;
71606;SDS011;60641;53.556;9.914;2024-03-06T05:40:04;9.10;;;3.80;;
71606;SDS011;60641;53.556;9.914;2024-03-06T05:42:31;13.30;;;4.30;;
71606;SDS011;60641;53.556;9.914;2024-03-06T05:44:57;11.80;;;4.90;;
71606;SDS011;60641;53.556;9.914;2024-03-06T05:47:31;8.70;;;4.40;;
71606;SDS011;60641;53.556;9.914;2024-03-06T05:49:59;10.40;;;4.40;;
71606;SDS011;60641;53.556;9.914;2024-03-06T05:52:26;10.20;;;4.30;;
71606;SDS011;60641;53.556;9.914;2024-03-06T05:54:53;11.30;;;4.60;;
71606;SDS011;60641;53.556;9.914;2024-03-06T05:57:20;10.60;;;4.20;;
71606;SDS011;60641;53.556;9.914;2024-03-06T05:59:47;9.70;;;4.20;;
71606;SDS011;60641;53.556;9.914;2024-03-06T06:02:14;12.50;;;4.50;;
71606;SDS011;60641;53.556;9.914;2024-03-06T06:04:42;10.50;;;4.70;;
71606;SDS011;60641;53.556;9.914;2024-03-06T06:07:09;12.90;;;4.50;;
71606;SDS011;60641;53.556;9.914;2024-03-06T06:09:36;9.90;;;4.50;;
71606;SDS011;60641;53.556;9.914;2024-03-06T06:12:02;10.40;;;4.70;;
71606;SDS011;60641;53.556;9.914;2024-03-06T06:14:29;12.00;;;4.50;;
71606;SDS011;60641;53.556;9.914;2024-03-06T06:16:56;12.90;;;4.80;;
71606;SDS011;60641;53.556;9.914;2024-03-06T06:19:22;10.70;;;4.60;;
71606;SDS011;60641;53.556;9.914;2024-03-06T06:21:50;11.40;;;4.40;;
71606;SDS011;60641;53.556;9.914;2024-03-06T06:24:19;9.80;;;4.10;;
71606;SDS011;60641;53.556;9.914;2024-03-06T06:26:45;11.90;;;3.90;;
71606;SDS011;60641;53.556;9.914;2024-03-06T06:29:12;9.40;;;4.10;;
71606;SDS011;60641;53.556;9.914;2024-03-06T06:31:38;11.90;;;4.60;;
71606;SDS011;60641;53.556;9.914;2024-03-06T06:34:05;11.70;;;5.10;;
71606;SDS011;60641;53.556;9.914;2024-03-06T06:36:31;10.80;;;4.50;;
71606;SDS011;60641;53.556;9.914;2024-03-06T06:38:57;12.50;;;5.00;;
71606;SDS011;60641;53.556;9.914;2024-03-06T06:41:24;10.80;;;4.70;;
71606;SDS011;60641;53.556;9.914;2024-03-06T06:43:50;11.40;;;4.80;;
71606;SDS011;60641;53.556;9.914;2024-03-06T06:46:20;9.70;;;4.10;;
71606;SDS011;60641;53.556;9.914;2024-03-06T06:48:47;12.10;;;4.70;;
71606;SDS011;60641;53.556;9.914;2024-03-06T06:51:15;13.20;;;4.70;;
71606;SDS011;60641;53.556;9.914;2024-03-06T06:53:41;10.20;;;3.80;;
71606;SDS011;60641;53.556;9.914;2024-03-06T06:56:08;10.00;;;4.20;;
71606;SDS011;60641;53.556;9.914;2024-03-06T06:58:34;11.10;;;4.10;;
71606;SDS011;60641;53.556;9.914;2024-03-06T07:01:00;10.40;;;4.40;;
71606;SDS011;60641;53.556;9.914;2024-03-06T07:03:27;10.50;;;3.90;;
71606;SDS011;60641;53.556;9.914;2024-03-06T07:05:56;10.60;;;4.80;;
71606;SDS011;60641;53.556;9.914;2024-03-06T07:08:23;9.40;;;4.40;;
71606;SDS011;60641;53.556;9.914;2024-03-06T07:10:50;10.30;;;4.30;;
71606;SDS011;60641;53.556;9.914;2024-03-06T07:13:19;8.70;;;3.90;;
71606;SDS011;60641;53.556;9.914;2024-03-06T07:15:45;10.10;;;4.50;;
71606;SDS011;60641;53.556;9.914;2024-03-06T07:18:12;9.90;;;4.00;;
71606;SDS011;60641;53.556;9.914;2024-03-06T07:20:39;10.40;;;4.20;;
71606;SDS011;60641;53.556;9.914;2024-03-06T07:23:07;9.70;;;4.30;;
71606;SDS011;60641;53.556;9.914;2024-03-06T07:25:33;10.00;;;3.70;;
71606;SDS011;60641;53.556;9.914;2024-03-06T07:28:00;13.20;;;4.40;;
71606;SDS011;60641;53.556;9.914;2024-03-06T07:30:27;9.10;;;3.80;;
71606;SDS011;60641;53.556;9.914;2024-03-06T07:32:55;10.50;;;4.20;;
71606;SDS011;60641;53.556;9.914;2024-03-06T07:35:23;9.10;;;4.30;;
71606;SDS011;60641;53.556;9.914;2024-03-06T07:37:49;9.70;;;3.90;;
71606;SDS011;60641;53.556;9.914;2024-03-06T07:40:16;8.40;;;3.00;;
71606;SDS011;60641;53.556;9.914;2024-03-06T07:42:43;11.40;;;4.20;;
71606;SDS011;60641;53.556;9.914;2024-03-06T07:45:09;8.80;;;4.10;;
71606;SDS011;60641;53.556;9.914;2024-03-06T07:47:35;8.60;;;3.70;;
71606;SDS011;60641;53.556;9.914;2024-03-06T07:50:06;9.30;;;4.40;;
71606;SDS011;60641;53.556;9.914;2024-03-06T07:52:34;9.80;;;4.10;;
71606;SDS011;60641;53.556;9.914;2024-03-06T07:54:59;8.80;;;3.90;;
71606;SDS011;60641;53.556;9.914;2024-03-06T07:57:25;9.90;;;4.00;;
71606;SDS011;60641;53.556;9.914;2024-03-06T07:59:51;10.10;;;4.40;;
71606;SDS011;60641;53.556;9.914;2024-03-06T08:02:19;17.60;;;4.20;;
71606;SDS011;60641;53.556;9.914;2024-03-06T08:04:45;10.30;;;4.40;;
71606;SDS011;60641;53.556;9.914;2024-03-06T08:07:12;12.50;;;3.80;;
71606;SDS011;60641;53.556;9.914;2024-03-06T08:09:38;12.30;;;4.40;;
71606;SDS011;60641;53.556;9.914;2024-03-06T08:12:04;10.90;;;4.50;;
71606;SDS011;60641;53.556;9.914;2024-03-06T08:14:29;10.30;;;4.40;;
71606;SDS011;60641;53.556;9.914;2024-03-06T08:16:55;9.70;;;4.40;;
71606;SDS011;60641;53.556;9.914;2024-03-06T08:19:21;12.10;;;5.10;;
71606;SDS011;60641;53.556;9.914;2024-03-06T08:21:46;11.20;;;4.80;;
71606;SDS011;60641;53.556;9.914;2024-03-06T08:24:12;11.60;;;5.10;;
71606;SDS011;60641;53.556;9.914;2024-03-06T08:26:38;12.20;;;4.80;;
71606;SDS011;60641;53.556;9.914;2024-03-06T08:29:03;11.00;;;4.90;;
71606;SDS011;60641;53.556;9.914;2024-03-06T08:31:29;11.60;;;5.00;;
71606;SDS011;60641;53.556;9.914;2024-03-06T08:33:56;11.40;;;4.50;;
71606;SDS011;60641;53.556;9.914;2024-03-06T08:36:21;10.20;;;4.60;;
71606;SDS011;60641;53.556;9.914;2024-03-06T08:38:47;10.60;;;4.50;;
71606;SDS011;60641;53.556;9.914;2024-03-06T08:41:12;10.20;;;4.10;;
71606;SDS011;60641;53.556;9.914;2024-03-06T08:43:38;11.80;;;4.80;;
71606;SDS011;60641;53.556;9.914;2024-03-06T08:46:03;12.80;;;5.30;;
71606;SDS011;60641;53.556;9.914;2024-03-06T08:48:29;12.20;;;4.80;;
71606;SDS011;60641;53.556;9.914;2024-03-06T08:50:55;11.00;;;4.90;;
71606;SDS011;60641;53.556;9.914;2024-03-06T08:53:20;10.40;;;4.40;;
71606;SDS011;60641;53.556;9.914;2024-03-06T08:55:46;10.30;;;5.20;;
71606;SDS011;60641;53.556;9.914;2024-03-06T08:58:12;11.80;;;4.80;;
71606;SDS011;60641;53.556;9.914;2024-03-06T09:00:39;10.70;;;4.70;;
71606;SDS011;60641;53.556;9.914;2024-03-06T09:03:04;9.20;;;4.50;;
71606;SDS011;60641;53.556;9.914;2024-03-06T09:05:30;10.20;;;4.30;;
71606;SDS011;60641;53.556;9.914;2024-03-06T09:07:56;11.60;;;4.90;;
71606;SDS011;60641;53.556;9.914;2024-03-06T09:10:22;9.50;;;4.40;;
71606;SDS011;60641;53.556;9.914;2024-03-06T09:12:48;10.20;;;4.50;;
71606;SDS011;60641;53.556;9.914;2024-03-06T09:15:14;9.20;;;4.00;;
71606;SDS011;60641;53.556;9.914;2024-03-06T09:17:40;10.90;;;4.70;;
71606;SDS011;60641;53.556;9.914;2024-03-06T09:20:06;10.80;;;3.80;;
71606;SDS011;60641;53.556;9.914;2024-03-06T09:22:39;11.60;;;4.70;;
71606;SDS011;60641;53.556;9.914;2024-03-06T09:25:05;9.00;;;4.40;;
71606;SDS011;60641;53.556;9.914;2024-03-06T09:27:31;10.50;;;4.80;;
71606;SDS011;60641;53.556;9.914;2024-03-06T09:29:57;14.10;;;4.90;;
71606;SDS011;60641;53.556;9.914;2024-03-06T09:32:22;10.70;;;5.10;;
71606;SDS011;60641;53.556;9.914;2024-03-06T09:34:48;11.20;;;5.30;;
71606;SDS011;60641;53.556;9.914;2024-03-06T09:37:14;11.10;;;5.10;;
71606;SDS011;60641;53.556;9.914;2024-03-06T09:39:40;11.30;;;5.40;;
71606;SDS011;60641;53.556;9.914;2024-03-06T09:42:05;11.80;;;5.50;;
71606;SDS011;60641;53.556;9.914;2024-03-06T09:44:32;11.20;;;5.40;;
71606;SDS011;60641;53.556;9.914;2024-03-06T09:46:57;12.80;;;5.70;;
71606;SDS011;60641;53.556;9.914;2024-03-06T09:49:25;10.70;;;5.60;;
71606;SDS011;60641;53.556;9.914;2024-03-06T09:51:50;12.50;;;6.10;;
71606;SDS011;60641;53.556;9.914;2024-03-06T09:54:18;13.10;;;6.10;;
71606;SDS011;60641;53.556;9.914;2024-03-06T09:56:45;11.40;;;5.80;;
71606;SDS011;60641;53.556;9.914;2024-03-06T09:59:12;13.60;;;6.40;;
71606;SDS011;60641;53.556;9.914;2024-03-06T10:01:39;15.70;;;6.60;;
71606;SDS011;60641;53.556;9.914;2024-03-06T10:04:28;13.70;;;6.60;;
71606;SDS011;60641;53.556;9.914;2024-03-06T10:06:57;14.10;;;5.80;;
71606;SDS011;60641;53.556;9.914;2024-03-06T10:09:24;13.60;;;6.00;;
71606;SDS011;60641;53.556;9.914;2024-03-06T10:11:50;11.30;;;4.90;;
71606;SDS011;60641;53.556;9.914;2024-03-06T10:14:18;14.10;;;5.20;;
71606;SDS011;60641;53.556;9.914;2024-03-06T10:17:17;11.40;;;6.00;;
71606;SDS011;60641;53.556;9.914;2024-03-06T10:19:35;13.00;;;6.40;;
71606;SDS011;60641;53.556;9.914;2024-03-06T10:22:02;12.60;;;6.10;;
71606;SDS011;60641;53.556;9.914;2024-03-06T10:24:33;13.30;;;6.40;;
71606;SDS011;60641;53.556;9.914;2024-03-06T10:26:59;14.20;;;6.40;;
71606;SDS011;60641;53.556;9.914;2024-03-06T10:29:26;14.70;;;6.30;;
71606;SDS011;60641;53.556;9.914;2024-03-06T10:31:55;15.70;;;6.80;;
71606;SDS011;60641;53.556;9.914;2024-03-06T10:34:23;15.00;;;6.70;;
71606;SDS011;60641;53.556;9.914;2024-03-06T10:36:54;13.70;;;6.90;;
71606;SDS011;60641;53.556;9.914;2024-03-06T10:39:20;16.50;;;6.00;;
71606;SDS011;60641;53.556;9.914;2024-03-06T10:41:49;15.50;;;6.80;;
71606;SDS011;60641;53.556;9.914;2024-03-06T10:44:23;14.60;;;7.10;;
71606;SDS011;60641;53.556;9.914;2024-03-06T10:49:26;15.10;;;8.10;;
71606;SDS011;60641;53.556;9.914;2024-03-06T10:52:02;15.00;;;7.50;;
71606;SDS011;60641;53.556;9.914;2024-03-06T10:54:32;19.70;;;8.80;;
71606;SDS011;60641;53.556;9.914;2024-03-06T10:57:00;21.40;;;8.50;;
71606;SDS011;60641;53.556;9.914;2024-03-06T10:59:26;15.90;;;8.40;;
71606;SDS011;60641;53.556;9.914;2024-03-06T11:01:53;16.10;;;7.90;;
71606;SDS011;60641;53.556;9.914;2024-03-06T11:04:25;18.00;;;8.30;;
71606;SDS011;60641;53.556;9.914;2024-03-06T11:06:56;15.50;;;8.50;;
71606;SDS011;60641;53.556;9.914;2024-03-06T11:09:24;15.50;;;8.60;;
71606;SDS011;60641;53.556;9.914;2024-03-06T11:11:51;19.40;;;9.00;;
71606;SDS011;60641;53.556;9.914;2024-03-06T11:14:18;17.30;;;8.60;;
71606;SDS011;60641;53.556;9.914;2024-03-06T11:17:00;16.30;;;7.70;;
71606;SDS011;60641;53.556;9.914;2024-03-06T11:19:30;15.50;;;8.60;;
71606;SDS011;60641;53.556;9.914;2024-03-06T11:21:56;15.80;;;8.00;;
71606;SDS011;60641;53.556;9.914;2024-03-06T11:24:23;15.40;;;8.90;;
71606;SDS011;60641;53.556;9.914;2024-03-06T11:26:56;17.30;;;8.60;;
71606;SDS011;60641;53.556;9.914;2024-03-06T11:29:28;16.10;;;8.40;;
71606;SDS011;60641;53.556;9.914;2024-03-06T11:32:07;15.70;;;8.50;;
71606;SDS011;60641;53.556;9.914;2024-03-06T11:34:33;19.30;;;8.90;;
71606;SDS011;60641;53.556;9.914;2024-03-06T11:37:03;14.90;;;8.20;;
71606;SDS011;60641;53.556;9.914;2024-03-06T11:39:32;13.10;;;7.60;;
71606;SDS011;60641;53.556;9.914;2024-03-06T11:41:59;13.70;;;7.70;;
71606;SDS011;60641;53.556;9.914;2024-03-06T11:44:26;16.90;;;8.40;;
71606;SDS011;60641;53.556;9.914;2024-03-06T11:49:25;16.80;;;9.10;;
71606;SDS011;60641;53.556;9.914;2024-03-06T11:52:06;15.50;;;8.20;;
71606;SDS011;60641;53.556;9.914;2024-03-06T11:54:35;16.20;;;8.20;;
71606;SDS011;60641;53.556;9.914;2024-03-06T11:57:02;17.80;;;8.20;;
71606;SDS011;60641;53.556;9.914;2024-03-06T11:59:32;15.80;;;8.00;;
71606;SDS011;60641;53.556;9.914;2024-03-06T12:01:59;16.80;;;7.90;;
71606;SDS011;60641;53.556;9.914;2024-03-06T12:04:32;15.80;;;8.40;;
71606;SDS011;60641;53.556;9.914;2024-03-06T12:06:59;15.30;;;8.40;;
71606;SDS011;60641;53.556;9.914;2024-03-06T12:09:30;13.00;;;7.10;;
71606;SDS011;60641;53.556;9.914;2024-03-06T12:11:56;17.10;;;8.70;;
71606;SDS011;60641;53.556;9.914;2024-03-06T12:14:25;15.10;;;8.30;;
71606;SDS011;60641;53.556;9.914;2024-03-06T12:17:01;17.50;;;8.30;;
71606;SDS011;60641;53.556;9.914;2024-03-06T12:19:32;15.80;;;8.10;;
71606;SDS011;60641;53.556;9.914;2024-03-06T12:22:02;18.40;;;8.70;;
71606;SDS011;60641;53.556;9.914;2024-03-06T12:24:32;14.70;;;8.40;;
71606;SDS011;60641;53.556;9.914;2024-03-06T12:26:59;14.60;;;8.00;;
71606;SDS011;60641;53.556;9.914;2024-03-06T12:29:34;15.80;;;8.40;;
71606;SDS011;60641;53.556;9.914;2024-03-06T12:32:03;17.50;;;8.60;;
71606;SDS011;60641;53.556;9.914;2024-03-06T12:34:29;18.40;;;8.30;;
71606;SDS011;60641;53.556;9.914;2024-03-06T12:36:55;14.80;;;8.00;;
71606;SDS011;60641;53.556;9.914;2024-03-06T12:39:22;16.20;;;8.70;;
71606;SDS011;60641;53.556;9.914;2024-03-06T12:41:49;16.20;;;8.50;;
71606;SDS011;60641;53.556;9.914;2024-03-06T12:44:15;16.70;;;8.50;;
71606;SDS011;60641;53.556;9.914;2024-03-06T12:46:41;13.40;;;7.70;;
71606;SDS011;60641;53.556;9.914;2024-03-06T12:49:07;14.60;;;8.10;;
71606;SDS011;60641;53.556;9.914;2024-03-06T12:51:32;15.10;;;7.50;;
71606;SDS011;60641;53.556;9.914;2024-03-06T12:53:58;13.40;;;5.70;;
71606;SDS011;60641;53.556;9.914;2024-03-06T12:56:24;13.00;;;5.90;;
71606;SDS011;60641;53.556;9.914;2024-03-06T12:58:52;13.00;;;7.30;;
71606;SDS011;60641;53.556;9.914;2024-03-06T13:01:18;15.20;;;7.30;;
71606;SDS011;60641;53.556;9.914;2024-03-06T13:03:45;14.60;;;7.40;;
71606;SDS011;60641;53.556;9.914;2024-03-06T13:06:11;15.60;;;7.80;;
71606;SDS011;60641;53.556;9.914;2024-03-06T13:08:36;15.30;;;7.90;;
71606;SDS011;60641;53.556;9.914;2024-03-06T13:11:02;12.00;;;6.30;;
71606;SDS011;60641;53.556;9.914;2024-03-06T13:13:28;20.40;;;6.50;;
71606;SDS011;60641;53.556;9.914;2024-03-06T13:15:55;13.90;;;6.40;;
71606;SDS011;60641;53.556;9.914;2024-03-06T13:18:21;12.30;;;6.70;;
71606;SDS011;60641;53.556;9.914;2024-03-06T13:20:47;15.80;;;6.30;;
71606;SDS011;60641;53.556;9.914;2024-03-06T13:23:12;11.50;;;5.20;;
71606;SDS011;60641;53.556;9.914;2024-03-06T13:25:38;13.40;;;6.30;;
71606;SDS011;60641;53.556;9.914;2024-03-06T13:28:04;15.40;;;5.90;;
71606;SDS011;60641;53.556;9.914;2024-03-06T13:30:30;15.00;;;6.70;;
71606;SDS011;60641;53.556;9.914;2024-03-06T13:32:56;13.60;;;6.80;;
71606;SDS011;60641;53.556;9.914;2024-03-06T13:35:22;14.60;;;6.20;;
71606;SDS011;60641;53.556;9.914;2024-03-06T13:37:47;13.40;;;6.60;;
71606;SDS011;60641;53.556;9.914;2024-03-06T13:40:14;13.80;;;6.80;;
71606;SDS011;60641;53.556;9.914;2024-03-06T13:42:40;12.50;;;5.90;;
71606;SDS011;60641;53.556;9.914;2024-03-06T13:45:06;11.60;;;6.40;;
71606;SDS011;60641;53.556;9.914;2024-03-06T13:47:41;13.90;;;6.20;;
71606;SDS011;60641;53.556;9.914;2024-03-06T13:50:08;12.60;;;6.20;;
71606;SDS011;60641;53.556;9.914;2024-03-06T13:52:35;14.60;;;6.70;;
71606;SDS011;60641;53.556;9.914;2024-03-06T13:55:00;15.00;;;6.60;;
71606;SDS011;60641;53.556;9.914;2024-03-06T13:57:28;13.50;;;6.20;;
71606;SDS011;60641;53.556;9.914;2024-03-06T13:59:54;13.50;;;6.40;;
71606;SDS011;60641;53.556;9.914;2024-03-06T14:02:19;14.40;;;6.70;;
71606;SDS011;60641;53.556;9.914;2024-03-06T14:04:45;14.30;;;6.00;;
71606;SDS011;60641;53.556;9.914;2024-03-06T14:07:10;13.30;;;5.90;;
71606;SDS011;60641;53.556;9.914;2024-03-06T14:09:36;12.70;;;5.50;;
71606;SDS011;60641;53.556;9.914;2024-03-06T14:12:02;12.70;;;6.10;;
71606;SDS011;60641;53.556;9.914;2024-03-06T14:14:28;15.80;;;5.60;;
71606;SDS011;60641;53.556;9.914;2024-03-06T14:16:54;14.20;;;5.60;;
71606;SDS011;60641;53.556;9.914;2024-03-06T14:19:20;13.30;;;5.50;;
71606;SDS011;60641;53.556;9.914;2024-03-06T14:21:47;12.10;;;5.60;;
71606;SDS011;60641;53.556;9.914;2024-03-06T14:24:12;15.10;;;5.00;;
71606;SDS011;60641;53.556;9.914;2024-03-06T14:26:38;11.40;;;4.40;;
71606;SDS011;60641;53.556;9.914;2024-03-06T14:29:05;12.60;;;5.20;;
71606;SDS011;60641;53.556;9.914;2024-03-06T14:31:32;14.10;;;5.00;;
71606;SDS011;60641;53.556;9.914;2024-03-06T14:33:58;11.10;;;5.50;;
71606;SDS011;60641;53.556;9.914;2024-03-06T14:36:23;9.80;;;4.70;;
71606;SDS011;60641;53.556;9.914;2024-03-06T14:38:52;11.00;;;5.60;;
71606;SDS011;60641;53.556;9.914;2024-03-06T14:41:18;11.90;;;4.90;;